This is the latest recevied weather packets stored in our database for station/object KO4RMV-3. If no packets are shown the sender has not sent any weather packets the latest 10 day(s).
| Time | Temp. | Humidity | Pressure | Rain* | Wind** | Luminosity | Snow |
|---|---|---|---|---|---|---|---|
| 1777590905 | 20° C | 41% | - | 0 mm | - | - | - |
| 1777590005 | 20° C | 42% | - | 0 mm | - | - | - |
| 1777589106 | 20.56° C | 40% | - | 0 mm | - | - | - |
| 1777588206 | 20.56° C | 41% | - | 0 mm | - | - | - |
| 1777587306 | 21.11° C | 39% | - | 0 mm | - | - | - |
| 1777586406 | 21.67° C | 39% | - | 0 mm | - | - | - |
| 1777585506 | 21.67° C | 39% | - | 0 mm | - | - | - |
| 1777584606 | 21.67° C | 38% | - | 0 mm | - | - | - |
| 1777583706 | 22.22° C | 38% | - | 0 mm | - | - | - |
| 1777582806 | 22.22° C | 38% | - | 0 mm | - | - | - |
| 1777581905 | 22.22° C | 39% | - | 0 mm | - | - | - |
| 1777581005 | 22.22° C | 40% | - | 0 mm | - | - | - |
| 1777580105 | 22.22° C | 46% | - | 0 mm | - | - | - |
| 1777579205 | 22.22° C | 46% | - | 0 mm | - | - | - |
| 1777578305 | 22.78° C | 44% | - | 0 mm | - | - | - |
| 1777577405 | 22.22° C | 48% | - | 0 mm | - | - | - |
| 1777576505 | 23.33° C | 44% | - | 0 mm | - | - | - |
| 1777575605 | 22.22° C | 48% | - | 0 mm | - | - | - |
| 1777574705 | 22.22° C | 48% | - | 0 mm | - | - | - |
| 1777573805 | 22.22° C | 47% | - | 0 mm | - | - | - |
| 1777572906 | 21.67° C | 46% | - | 0 mm | - | - | - |
| 1777572006 | 23.33° C | 46% | - | 0 mm | - | - | - |
| 1777571106 | 22.22° C | 49% | - | 0 mm | - | - | - |
| 1777570206 | 21.11° C | 54% | - | 0 mm | - | - | - |
| 1777569306 | 21.67° C | 54% | - | 0 mm | - | - | - |
* Rain latest hour (hover to see other rain measurements)
** Current wind speed in m/s (hover to see current wind gust speed)